WXM80 ListenWXM80 Stop

You find our weather info also at:

UK Metoffice

WeatherCloud

Weather Underground

Northeastern Weather Network

AWEKAS

Citizen Weather Observer Program (CWOP)

HAMweather, WeatherForYou, PWS Weather


Weather Underground History page Text

Daily Summary for March 11, 2016 Units:  English    Metric   Both
« Previous Day
Next Day »
Daily Weekly Monthly Yearly Custom
  High: Low: Average:
Temperature: 63.7 °F 44.5 °F 55.8 °F
Dew Point: 57.0 °F 33.2 °F 45.6 °F
Humidity: 96 % 45 % 71 %
Wind Speed: 7.6 mph 0.0 mph 2.9 mph
Wind Gust: 13.8 mph - -
Wind:- - WSW
Pressure: 30.33 in 29.85 in -
Precipitation: 0.05 in    
Historical Graphs
 
 
Tabular Data for March 11, 2016
Time Temperature Dew Point Pressure Wind Wind Speed Wind Gust Humidity Rainfall Rate (Hourly)
00:04 63.7 °F 56.4 °F 29.85 in WNW 3.0 mph 8.1 mph 77 % 0.00 in
00:09 63.6 °F 56.6 °F 29.85 in West 2.5 mph 4.0 mph 78 % 0.00 in
00:14 63.4 °F 56.4 °F 29.85 in West 3.0 mph 5.8 mph 78 % 0.00 in
00:19 63.3 °F 56.7 °F 29.85 in NW 2.1 mph 3.5 mph 79 % 0.00 in
00:25 63.3 °F 57.0 °F 29.85 in West 1.8 mph 7.0 mph 80 % 0.00 in
00:30 63.2 °F 56.9 °F 29.86 in North 7.6 mph 13.0 mph 80 % 0.00 in
00:35 62.2 °F 54.5 °F 29.86 in NNW 2.5 mph 5.8 mph 76 % 0.00 in
00:40 60.9 °F 52.9 °F 29.87 in NNW 2.3 mph 5.8 mph 75 % 0.00 in
00:45 59.8 °F 52.6 °F 29.86 in NNW 2.3 mph 4.6 mph 77 % 0.00 in
00:50 58.8 °F 52.6 °F 29.87 in North 4.9 mph 9.2 mph 80 % 0.00 in
00:55 58.0 °F 52.5 °F 29.87 in NNW 2.2 mph 5.8 mph 82 % 0.00 in
01:00 57.6 °F 52.8 °F 29.87 in NNW 1.6 mph 3.5 mph 84 % 0.00 in
01:05 57.4 °F 52.9 °F 29.87 in NNW 0.6 mph 3.5 mph 85 % 0.00 in
01:10 57.1 °F 53.0 °F 29.87 in NW 1.2 mph 2.3 mph 86 % 0.00 in
01:16 57.0 °F 53.2 °F 29.87 in NW 1.6 mph 3.5 mph 87 % 0.00 in
01:21 56.9 °F 53.1 °F 29.87 in West 2.9 mph 5.0 mph 87 % 0.00 in
01:26 56.8 °F 53.0 °F 29.86 in WNW 2.4 mph 3.5 mph 87 % 0.00 in
01:31 56.7 °F 52.9 °F 29.87 in WNW 2.1 mph 4.0 mph 87 % 0.00 in
01:36 56.7 °F 52.9 °F 29.87 in West 3.0 mph 4.6 mph 87 % 0.00 in
01:41 56.6 °F 52.8 °F 29.87 in West 2.2 mph 3.5 mph 87 % 0.00 in
01:46 56.5 °F 52.7 °F 29.87 in WNW 0.7 mph 2.3 mph 87 % 0.00 in
01:51 56.5 °F 53.0 °F 29.87 in NW 1.2 mph 4.0 mph 88 % 0.00 in
01:56 56.5 °F 53.0 °F 29.87 in NNW 3.1 mph 6.0 mph 88 % 0.00 in
02:01 56.6 °F 53.1 °F 29.87 in WNW 2.0 mph 5.0 mph 88 % 0.00 in
02:07 56.5 °F 53.0 °F 29.88 in NNW 1.7 mph 5.0 mph 88 % 0.00 in
02:12 56.5 °F 53.0 °F 29.88 in NW 1.9 mph 4.0 mph 88 % 0.00 in
02:17 56.4 °F 52.6 °F 29.88 in NW 1.8 mph 3.5 mph 87 % 0.00 in
02:22 56.2 °F 52.4 °F 29.88 in NW 1.7 mph 3.5 mph 87 % 0.00 in
02:27 56.0 °F 52.2 °F 29.88 in NW 1.9 mph 3.5 mph 87 % 0.00 in
02:32 55.7 °F 52.2 °F 29.88 in NNW 2.8 mph 4.6 mph 88 % 0.00 in
02:37 55.4 °F 52.2 °F 29.88 in NNW 2.9 mph 6.9 mph 89 % 0.00 in
02:42 55.2 °F 52.0 °F 29.88 in NNW 1.8 mph 3.5 mph 89 % 0.00 in
02:47 55.0 °F 52.4 °F 29.88 in NW 3.7 mph 5.8 mph 91 % 0.00 in
02:52 54.8 °F 52.2 °F 29.88 in NW 2.3 mph 4.6 mph 91 % 0.00 in
02:58 54.7 °F 52.4 °F 29.88 in NW 1.5 mph 3.5 mph 92 % 0.00 in
03:03 54.6 °F 52.3 °F 29.88 in North 2.4 mph 3.5 mph 92 % 0.00 in
03:08 54.7 °F 52.4 °F 29.88 in Calm   3.5 mph 92 % 0.00 in
03:13 54.6 °F 52.6 °F 29.89 in North 2.3 mph 4.6 mph 93 % 0.00 in
03:18 54.7 °F 52.7 °F 29.90 in WNW 2.1 mph 3.5 mph 93 % 0.00 in
03:23 54.7 °F 52.7 °F 29.90 in NNE 1.9 mph 3.5 mph 93 % 0.01 in
03:28 54.6 °F 52.6 °F 29.90 in North 0.5 mph 2.3 mph 93 % 0.02 in
03:33 54.6 °F 52.6 °F 29.91 in NNW 2.1 mph 3.5 mph 93 % 0.03 in
03:43 54.5 °F 52.8 °F 29.91 in NW 2.5 mph 4.6 mph 94 % 0.03 in
03:49 54.4 °F 52.4 °F 29.91 in WNW 2.0 mph 3.5 mph 93 % 0.04 in
03:54 54.2 °F 52.2 °F 29.91 in Calm   2.3 mph 93 % 0.04 in
04:04 54.0 °F 52.0 °F 29.91 in NW 0.7 mph 2.3 mph 93 % 0.04 in
04:14 54.0 °F 52.3 °F 29.91 in Calm   2.3 mph 94 % 0.04 in
04:19 54.0 °F 52.0 °F 29.91 in Calm     93 % 0.04 in
04:24 53.9 °F 52.2 °F 29.91 in NW 0.5 mph 1.2 mph 94 % 0.03 in
04:29 53.9 °F 52.2 °F 29.91 in NW 0.6 mph 2.3 mph 94 % 0.02 in
04:34 54.0 °F 52.3 °F 29.91 in NW 0.8 mph 2.3 mph 94 % 0.01 in
04:40 54.1 °F 52.4 °F 29.91 in NW 0.1 mph 1.0 mph 94 % 0.01 in
04:45 54.1 °F 52.4 °F 29.92 in Calm   1.2 mph 94 % 0.01 in
04:50 54.0 °F 52.3 °F 29.91 in Calm     94 % 0.00 in
04:55 54.1 °F 52.4 °F 29.92 in NW 0.7 mph 2.3 mph 94 % 0.00 in
05:00 54.0 °F 52.3 °F 29.92 in Calm   1.2 mph 94 % 0.00 in
05:05 54.0 °F 52.3 °F 29.93 in Calm   1.2 mph 94 % 0.00 in
05:10 54.0 °F 52.3 °F 29.93 in NW 1.0 mph 2.3 mph 94 % 0.00 in
05:15 54.0 °F 52.3 °F 29.94 in NW 0.3 mph 1.2 mph 94 % 0.00 in
05:20 54.0 °F 52.3 °F 29.94 in NW 0.9 mph 2.3 mph 94 % 0.00 in
05:25 54.0 °F 52.3 °F 29.94 in NW 0.9 mph 3.5 mph 94 % 0.00 in
05:31 54.0 °F 52.6 °F 29.95 in NW 0.8 mph 2.3 mph 95 % 0.00 in
05:36 54.0 °F 52.6 °F 29.95 in NW 1.4 mph 2.3 mph 95 % 0.00 in
05:41 54.0 °F 52.6 °F 29.95 in SW 2.3 mph 3.5 mph 95 % 0.00 in
05:46 54.0 °F 52.6 °F 29.94 in SSW 1.5 mph 3.5 mph 95 % 0.00 in
05:51 53.9 °F 52.5 °F 29.94 in SSW 1.4 mph 2.3 mph 95 % 0.00 in
05:56 53.9 °F 52.5 °F 29.94 in SSW 1.1 mph 2.3 mph 95 % 0.00 in
06:01 53.9 °F 52.5 °F 29.94 in SSW 1.4 mph 2.3 mph 95 % 0.00 in
06:06 53.9 °F 52.5 °F 29.95 in SSW 1.9 mph 3.0 mph 95 % 0.00 in
06:11 53.9 °F 52.5 °F 29.94 in SSW 0.9 mph 2.3 mph 95 % 0.00 in
06:16 53.9 °F 52.5 °F 29.93 in SSW 0.1 mph 2.3 mph 95 % 0.00 in
06:22 53.9 °F 52.5 °F 29.93 in SSW 1.6 mph 3.5 mph 95 % 0.00 in
06:27 54.0 °F 52.6 °F 29.94 in SSW 1.6 mph 3.5 mph 95 % 0.00 in
06:32 54.0 °F 52.9 °F 29.95 in WSW 0.5 mph 3.5 mph 96 % 0.00 in
06:37 54.1 °F 53.0 °F 29.96 in SW 1.4 mph 3.5 mph 96 % 0.00 in
06:42 54.2 °F 53.1 °F 29.96 in WSW 0.6 mph 3.5 mph 96 % 0.01 in
06:47 54.2 °F 53.1 °F 29.96 in WSW 1.0 mph 1.2 mph 96 % 0.01 in
06:52 54.2 °F 53.1 °F 29.96 in SW 3.0 mph 3.5 mph 96 % 0.01 in
06:57 54.2 °F 53.1 °F 29.96 in SW 2.3 mph 5.8 mph 96 % 0.01 in
07:02 54.2 °F 53.1 °F 29.97 in SW 3.0 mph 4.6 mph 96 % 0.01 in
07:07 54.2 °F 53.1 °F 29.97 in SW 1.1 mph 4.6 mph 96 % 0.01 in
07:13 54.2 °F 53.1 °F 29.98 in SW 3.4 mph 4.6 mph 96 % 0.01 in
07:18 54.1 °F 52.7 °F 29.98 in SW 1.8 mph 3.5 mph 95 % 0.01 in
07:23 54.1 °F 52.7 °F 29.98 in SW 1.7 mph 3.5 mph 95 % 0.01 in
07:28 54.0 °F 52.6 °F 29.98 in SW 1.2 mph 3.5 mph 95 % 0.01 in
07:33 54.0 °F 52.6 °F 29.99 in SW 1.5 mph 2.3 mph 95 % 0.01 in
07:38 54.0 °F 52.6 °F 29.99 in WSW 1.4 mph 3.0 mph 95 % 0.01 in
07:43 54.1 °F 52.7 °F 29.99 in West 2.7 mph 4.6 mph 95 % 0.00 in
07:48 54.2 °F 53.1 °F 30.00 in WSW 4.7 mph 7.0 mph 96 % 0.00 in
07:53 54.4 °F 53.3 °F 30.00 in SW 2.5 mph 5.8 mph 96 % 0.00 in
07:58 54.7 °F 53.6 °F 30.00 in SW 5.3 mph 5.8 mph 96 % 0.00 in
08:04 54.9 °F 53.8 °F 30.00 in SW 2.5 mph 6.9 mph 96 % 0.00 in
08:09 55.3 °F 54.2 °F 30.00 in WSW 5.5 mph 9.2 mph 96 % 0.00 in
08:14 55.5 °F 54.4 °F 30.00 in West 6.0 mph 12.7 mph 96 % 0.00 in
08:19 55.7 °F 54.3 °F 30.00 in West 4.8 mph 8.1 mph 95 % 0.00 in
08:24 55.9 °F 54.5 °F 30.01 in WNW 5.1 mph 11.5 mph 95 % 0.00 in
08:29 56.0 °F 54.3 °F 30.01 in WNW 4.2 mph 8.0 mph 94 % 0.00 in
08:34 56.1 °F 54.1 °F 30.02 in West 4.5 mph 6.9 mph 93 % 0.00 in
08:39 56.2 °F 53.9 °F 30.02 in SW 4.0 mph 8.1 mph 92 % 0.00 in
08:44 56.4 °F 53.8 °F 30.03 in WNW 3.5 mph 6.9 mph 91 % 0.00 in
08:55 56.7 °F 53.5 °F 30.02 in WSW 6.2 mph 8.1 mph 89 % 0.00 in
09:00 56.9 °F 52.8 °F 30.02 in WSW 6.2 mph 13.0 mph 86 % 0.00 in
09:05 57.1 °F 52.6 °F 30.03 in WNW 5.8 mph 10.4 mph 85 % 0.00 in
09:10 57.2 °F 52.4 °F 30.03 in West 5.0 mph 8.1 mph 84 % 0.00 in
09:15 57.3 °F 52.2 °F 30.03 in NNW 4.1 mph 5.8 mph 83 % 0.00 in
09:20 57.4 °F 51.9 °F 30.03 in WNW 1.2 mph 3.5 mph 82 % 0.00 in
09:25 57.4 °F 51.6 °F 30.04 in NW 4.8 mph 10.4 mph 81 % 0.00 in
09:30 57.2 °F 51.1 °F 30.05 in NW 5.6 mph 11.5 mph 80 % 0.00 in
09:35 56.9 °F 50.5 °F 30.05 in NNW 4.0 mph 5.8 mph 79 % 0.00 in
09:41 56.5 °F 49.7 °F 30.06 in NNE 1.7 mph 6.9 mph 78 % 0.00 in
09:46 56.0 °F 48.9 °F 30.06 in NW 1.4 mph 3.5 mph 77 % 0.00 in
09:51 55.6 °F 48.5 °F 30.06 in NNW 5.9 mph 9.2 mph 77 % 0.00 in
09:56 54.9 °F 48.2 °F 30.06 in NNW 2.8 mph 5.8 mph 78 % 0.00 in
10:01 54.6 °F 47.9 °F 30.07 in NNW 2.8 mph 8.1 mph 78 % 0.00 in
10:06 54.5 °F 47.8 °F 30.07 in NNE 4.6 mph 8.1 mph 78 % 0.00 in
10:11 54.2 °F 46.4 °F 30.07 in West 3.6 mph 6.9 mph 75 % 0.00 in
10:16 54.4 °F 47.0 °F 30.07 in NNW 4.0 mph 6.9 mph 76 % 0.00 in
10:21 54.9 °F 47.5 °F 30.07 in WNW 3.3 mph 5.8 mph 76 % 0.00 in
10:26 55.1 °F 46.6 °F 30.07 in SW 4.9 mph 9.2 mph 73 % 0.00 in
10:32 55.5 °F 47.7 °F 30.08 in NNW 4.6 mph 5.0 mph 75 % 0.00 in
10:37 55.9 °F 47.4 °F 30.08 in NNW 3.9 mph 8.1 mph 73 % 0.00 in
10:42 56.2 °F 46.9 °F 30.08 in NW 4.9 mph 11.5 mph 71 % 0.00 in
10:47 56.4 °F 47.1 °F 30.08 in NNW 5.0 mph 8.1 mph 71 % 0.00 in
10:52 56.9 °F 47.2 °F 30.08 in North 2.9 mph 6.0 mph 70 % 0.00 in
10:57 57.4 °F 46.9 °F 30.08 in NW 2.9 mph 9.2 mph 68 % 0.00 in
11:02 57.8 °F 46.9 °F 30.08 in WNW 2.9 mph 4.0 mph 67 % 0.00 in
11:07 58.2 °F 47.3 °F 30.08 in NW 3.7 mph 9.2 mph 67 % 0.00 in
11:12 58.4 °F 46.7 °F 30.07 in WNW 4.0 mph 6.9 mph 65 % 0.00 in
11:17 58.7 °F 47.0 °F 30.07 in NNW 5.1 mph 8.1 mph 65 % 0.00 in
11:23 59.1 °F 47.7 °F 30.07 in NW 3.1 mph 8.1 mph 66 % 0.00 in
11:28 59.6 °F 47.4 °F 30.07 in NNW 5.2 mph 8.1 mph 64 % 0.00 in
11:33 59.8 °F 46.3 °F 30.08 in NW 2.8 mph 5.8 mph 61 % 0.00 in
11:38 60.0 °F 47.4 °F 30.08 in NNW 4.5 mph 8.1 mph 63 % 0.00 in
11:43 60.4 °F 47.3 °F 30.08 in North 4.3 mph 7.0 mph 62 % 0.00 in
11:48 60.5 °F 47.0 °F 30.07 in WNW 2.7 mph 3.5 mph 61 % 0.00 in
11:53 60.7 °F 46.7 °F 30.07 in NW 2.1 mph 5.8 mph 60 % 0.00 in
11:58 60.8 °F 47.3 °F 30.08 in NNE 2.7 mph 6.9 mph 61 % 0.00 in
12:03 60.7 °F 46.7 °F 30.08 in NW 3.2 mph 5.0 mph 60 % 0.00 in
12:08 60.9 °F 46.5 °F 30.07 in NW 4.6 mph 8.1 mph 59 % 0.00 in
12:14 61.1 °F 46.2 °F 30.07 in NW 4.4 mph 8.1 mph 58 % 0.00 in
12:19 61.1 °F 45.3 °F 30.07 in NNE 7.0 mph 7.0 mph 56 % 0.00 in
12:24 60.8 °F 45.5 °F 30.07 in North 4.2 mph 6.9 mph 57 % 0.00 in
12:29 60.7 °F 44.9 °F 30.07 in NNW 4.9 mph 9.2 mph 56 % 0.00 in
12:34 60.7 °F 44.4 °F 30.07 in NNW 4.4 mph 7.0 mph 55 % 0.00 in
12:39 60.7 °F 44.4 °F 30.07 in West 4.6 mph 10.4 mph 55 % 0.00 in
12:44 60.6 °F 44.3 °F 30.07 in NW 3.0 mph 5.8 mph 55 % 0.00 in
12:47 60.7 °F 44.4 °F 30.08 in NW 4.4 mph 7.0 mph 55 % 0.00 in
12:51 60.9 °F 44.6 °F 30.08 in NW 4.2 mph 7.0 mph 55 % 0.00 in
12:55 61.2 °F 43.9 °F 30.08 in WNW 4.3 mph 8.1 mph 53 % 0.00 in
13:00 61.4 °F 43.6 °F 30.08 in WNW 6.5 mph 11.5 mph 52 % 0.00 in
13:01 61.4 °F 44.1 °F 30.08 in WNW 3.2 mph 11.5 mph 53 % 0.00 in
13:06 61.5 °F 43.2 °F 30.08 in NW 5.2 mph 11.5 mph 51 % 0.00 in
13:08 61.6 °F 43.8 °F 30.08 in WNW 5.3 mph 10.4 mph 52 % 0.00 in
13:09 61.6 °F 43.3 °F 30.07 in WNW 6.9 mph 10.4 mph 51 % 0.00 in
13:12 61.6 °F 42.8 °F 30.08 in WNW 5.1 mph 10.4 mph 50 % 0.00 in
13:17 61.7 °F 42.3 °F 30.08 in NW 4.0 mph 6.9 mph 49 % 0.00 in
13:22 62.0 °F 43.1 °F 30.08 in NNW 5.5 mph 9.2 mph 50 % 0.00 in
13:27 62.2 °F 42.8 °F 30.08 in WNW 4.7 mph 7.0 mph 49 % 0.00 in
13:32 62.3 °F 43.4 °F 30.08 in West 3.8 mph 4.6 mph 50 % 0.00 in
13:37 62.3 °F 43.4 °F 30.09 in WNW 2.4 mph 8.1 mph 50 % 0.00 in
13:40 62.3 °F 42.3 °F 30.09 in WNW 3.3 mph 8.1 mph 48 % 0.00 in
13:41 62.2 °F 42.3 °F 30.09 in West 3.8 mph 7.0 mph 48 % 0.00 in
13:43 62.2 °F 42.8 °F 30.08 in WNW 4.2 mph 5.8 mph 49 % 0.00 in
13:44 62.2 °F 42.3 °F 30.08 in West 3.9 mph 6.9 mph 48 % 0.00 in
13:45 62.2 °F 42.3 °F 30.08 in WNW 4.3 mph 8.1 mph 48 % 0.00 in
13:47 62.1 °F 42.2 °F 30.08 in WNW 3.6 mph 9.0 mph 48 % 0.00 in
13:50 62.0 °F 42.6 °F 30.08 in WNW 2.2 mph 5.8 mph 49 % 0.00 in
13:55 62.0 °F 42.6 °F 30.08 in NNW 1.9 mph 3.5 mph 49 % 0.00 in
14:00 62.0 °F 42.1 °F 30.08 in SW 4.5 mph 6.9 mph 48 % 0.00 in
14:05 62.0 °F 43.7 °F 30.08 in WNW 3.4 mph 7.0 mph 51 % 0.00 in
14:10 61.9 °F 42.5 °F 30.08 in WNW 3.4 mph 5.0 mph 49 % 0.00 in
14:15 61.9 °F 42.0 °F 30.09 in NNW 2.8 mph 4.6 mph 48 % 0.00 in
14:20 62.2 °F 42.3 °F 30.09 in NW 5.1 mph 6.9 mph 48 % 0.00 in
14:25 62.5 °F 41.4 °F 30.10 in NNW 3.0 mph 4.0 mph 46 % 0.00 in
14:30 62.6 °F 41.5 °F 30.10 in NNW 3.5 mph 8.1 mph 46 % 0.00 in
14:35 62.6 °F 42.1 °F 30.09 in North 1.5 mph 3.0 mph 47 % 0.00 in
14:41 62.6 °F 41.5 °F 30.10 in North 3.6 mph 6.9 mph 46 % 0.00 in
14:46 62.8 °F 41.7 °F 30.10 in WNW 2.1 mph 3.5 mph 46 % 0.00 in
14:51 62.9 °F 42.4 °F 30.11 in NW 3.5 mph 4.6 mph 47 % 0.00 in
14:56 62.9 °F 41.8 °F 30.11 in NNW 3.7 mph 5.8 mph 46 % 0.00 in
15:01 62.7 °F 42.2 °F 30.11 in WNW 1.9 mph 3.5 mph 47 % 0.00 in
15:06 62.5 °F 42.0 °F 30.11 in North 3.8 mph 5.8 mph 47 % 0.00 in
15:11 62.4 °F 41.3 °F 30.11 in NW 2.4 mph 6.0 mph 46 % 0.00 in
15:16 62.3 °F 41.8 °F 30.12 in NNE 3.2 mph 5.0 mph 47 % 0.00 in
15:21 62.2 °F 41.2 °F 30.12 in North 6.1 mph 9.2 mph 46 % 0.00 in
15:26 62.0 °F 41.0 °F 30.12 in NNW 4.3 mph 6.0 mph 46 % 0.00 in
15:37 61.7 °F 40.1 °F 30.12 in NNW 3.8 mph 6.9 mph 45 % 0.00 in
15:42 61.6 °F 40.6 °F 30.12 in NNE 2.2 mph 6.0 mph 46 % 0.00 in
15:47 61.4 °F 39.9 °F 30.13 in NE 4.0 mph 6.9 mph 45 % 0.00 in
15:52 61.0 °F 40.1 °F 30.12 in North 4.6 mph 9.0 mph 46 % 0.00 in
15:57 60.6 °F 40.2 °F 30.13 in North 3.6 mph 7.0 mph 47 % 0.00 in
16:02 60.1 °F 40.3 °F 30.13 in North 1.7 mph 5.0 mph 48 % 0.00 in
16:07 59.8 °F 39.5 °F 30.14 in North 3.2 mph 6.9 mph 47 % 0.00 in
16:12 59.6 °F 40.4 °F 30.14 in NNE 2.7 mph 6.0 mph 49 % 0.00 in
16:17 59.3 °F 39.6 °F 30.14 in NW 3.4 mph 8.1 mph 48 % 0.00 in
16:23 59.2 °F 39.5 °F 30.14 in North 4.9 mph 11.5 mph 48 % 0.00 in
16:28 59.1 °F 39.4 °F 30.14 in NNW 3.1 mph 11.5 mph 48 % 0.00 in
16:33 58.9 °F 39.8 °F 30.14 in NNE 7.2 mph 13.8 mph 49 % 0.00 in
16:38 58.9 °F 39.2 °F 30.15 in NNW 5.4 mph 9.0 mph 48 % 0.00 in
16:43 58.9 °F 39.2 °F 30.15 in North 5.3 mph 8.1 mph 48 % 0.00 in
16:48 58.8 °F 39.7 °F 30.15 in NNE 5.4 mph 13.0 mph 49 % 0.00 in
16:53 58.6 °F 38.4 °F 30.16 in NNW 5.1 mph 10.4 mph 47 % 0.00 in
16:58 58.4 °F 38.2 °F 30.16 in NNE 7.4 mph 13.8 mph 47 % 0.00 in
17:03 58.1 °F 38.5 °F 30.17 in NNE 5.1 mph 10.4 mph 48 % 0.00 in
17:08 57.7 °F 38.1 °F 30.17 in NNE 6.2 mph 11.5 mph 48 % 0.00 in
17:14 57.4 °F 37.9 °F 30.17 in NNW 6.2 mph 6.9 mph 48 % 0.00 in
17:19 57.1 °F 38.1 °F 30.17 in North 7.1 mph 11.5 mph 49 % 0.00 in
17:24 57.0 °F 38.0 °F 30.17 in North 5.9 mph 9.2 mph 49 % 0.00 in
17:29 56.8 °F 38.3 °F 30.18 in North 4.5 mph 6.9 mph 50 % 0.00 in
17:34 56.7 °F 38.3 °F 30.19 in North 4.1 mph 5.8 mph 50 % 0.00 in
17:39 56.5 °F 38.1 °F 30.19 in North 4.0 mph 5.8 mph 50 % 0.00 in
17:44 56.4 °F 38.0 °F 30.19 in NNE 2.4 mph 3.5 mph 50 % 0.00 in
17:49 56.3 °F 37.9 °F 30.19 in NNE 0.2 mph 2.3 mph 50 % 0.00 in
17:54 56.1 °F 38.7 °F 30.20 in Calm   1.2 mph 52 % 0.00 in
17:59 55.8 °F 38.9 °F 30.20 in Calm   1.2 mph 53 % 0.00 in
18:05 55.4 °F 39.0 °F 30.20 in NE 0.1 mph 3.5 mph 54 % 0.00 in
18:10 55.0 °F 38.6 °F 30.20 in NNW 1.8 mph 4.6 mph 54 % 0.00 in
18:20 54.5 °F 39.6 °F 30.21 in North 1.2 mph 3.5 mph 57 % 0.00 in
18:25 54.2 °F 39.7 °F 30.21 in Calm   1.2 mph 58 % 0.00 in
18:30 53.8 °F 39.8 °F 30.21 in NNW 2.1 mph 4.6 mph 59 % 0.00 in
18:35 53.4 °F 39.0 °F 30.22 in NNE 2.3 mph 8.1 mph 58 % 0.00 in
18:40 53.1 °F 39.1 °F 30.22 in North 2.9 mph 4.6 mph 59 % 0.00 in
18:45 53.0 °F 39.0 °F 30.22 in NNE 1.7 mph 6.9 mph 59 % 0.00 in
18:50 52.8 °F 38.9 °F 30.23 in North 3.5 mph 6.9 mph 59 % 0.00 in
18:56 52.7 °F 38.8 °F 30.23 in NNW 3.1 mph 11.5 mph 59 % 0.00 in
19:01 52.7 °F 38.8 °F 30.23 in NNW 1.8 mph 9.2 mph 59 % 0.00 in
19:06 52.6 °F 38.7 °F 30.24 in NNW 0.5 mph 3.5 mph 59 % 0.00 in
19:11 52.5 °F 38.6 °F 30.24 in WNW 1.7 mph 3.5 mph 59 % 0.00 in
19:16 52.5 °F 38.6 °F 30.24 in NW 1.4 mph 4.6 mph 59 % 0.00 in
19:21 52.5 °F 38.6 °F 30.23 in NW 1.4 mph 5.0 mph 59 % 0.00 in
19:26 52.4 °F 38.5 °F 30.24 in NNW 0.9 mph 3.5 mph 59 % 0.00 in
19:31 52.4 °F 38.0 °F 30.24 in WNW 1.0 mph 5.8 mph 58 % 0.00 in
19:36 52.4 °F 38.5 °F 30.24 in NW 1.2 mph 3.5 mph 59 % 0.00 in
19:41 52.4 °F 38.5 °F 30.25 in NNW 0.6 mph 3.5 mph 59 % 0.00 in
19:47 52.3 °F 38.4 °F 30.25 in NNE 0.4 mph 3.5 mph 59 % 0.00 in
19:52 52.2 °F 38.3 °F 30.25 in WNW 0.5 mph 3.5 mph 59 % 0.00 in
19:57 52.1 °F 38.6 °F 30.26 in North 1.7 mph 3.5 mph 60 % 0.00 in
20:02 51.9 °F 38.4 °F 30.26 in North 0.3 mph 1.2 mph 60 % 0.00 in
20:07 51.6 °F 38.6 °F 30.26 in North 0.6 mph 2.3 mph 61 % 0.00 in
20:12 51.3 °F 39.1 °F 30.26 in North 1.9 mph 3.5 mph 63 % 0.00 in
20:17 51.0 °F 38.8 °F 30.26 in NNE 2.4 mph 3.5 mph 63 % 0.00 in
20:22 50.6 °F 38.9 °F 30.27 in NNE 0.9 mph 2.3 mph 64 % 0.00 in
20:27 50.4 °F 38.7 °F 30.27 in Calm     64 % 0.00 in
20:32 50.2 °F 38.9 °F 30.26 in Calm     65 % 0.00 in
20:38 49.9 °F 39.0 °F 30.27 in Calm     66 % 0.00 in
20:43 49.5 °F 39.0 °F 30.26 in NNE 0.9 mph 2.3 mph 67 % 0.00 in
20:48 49.2 °F 38.7 °F 30.27 in NNE 0.8 mph 1.2 mph 67 % 0.00 in
20:53 48.9 °F 38.4 °F 30.27 in WNW 2.0 mph 3.5 mph 67 % 0.00 in
20:58 48.7 °F 37.1 °F 30.27 in West 1.6 mph 3.5 mph 64 % 0.00 in
21:03 48.7 °F 37.1 °F 30.27 in WNW 0.3 mph 2.3 mph 64 % 0.00 in
21:08 48.7 °F 37.1 °F 30.28 in NW 1.1 mph 2.3 mph 64 % 0.00 in
21:13 48.8 °F 37.2 °F 30.27 in NNE 2.7 mph 4.6 mph 64 % 0.00 in
21:18 48.9 °F 37.3 °F 30.28 in NNE 1.6 mph 3.5 mph 64 % 0.00 in
21:23 48.9 °F 37.3 °F 30.28 in NE 3.1 mph 3.5 mph 64 % 0.00 in
21:29 48.8 °F 37.2 °F 30.28 in North 3.3 mph 5.0 mph 64 % 0.00 in
21:34 48.7 °F 37.1 °F 30.28 in NE 2.8 mph 5.8 mph 64 % 0.00 in
21:39 48.5 °F 37.3 °F 30.29 in NNE 1.8 mph 3.5 mph 65 % 0.00 in
21:44 48.3 °F 37.5 °F 30.29 in NNE 2.2 mph 3.5 mph 66 % 0.00 in
21:54 47.9 °F 36.7 °F 30.30 in NNE 4.8 mph 6.9 mph 65 % 0.00 in
21:59 47.7 °F 36.9 °F 30.30 in NE 3.4 mph 5.8 mph 66 % 0.00 in
22:04 47.5 °F 37.1 °F 30.30 in North 2.8 mph 10.4 mph 67 % 0.00 in
22:14 47.3 °F 36.1 °F 30.30 in NNE 5.6 mph 10.4 mph 65 % 0.00 in
22:20 47.3 °F 36.1 °F 30.30 in NE 6.2 mph 10.4 mph 65 % 0.00 in
22:25 47.2 °F 36.0 °F 30.30 in North 5.4 mph 9.2 mph 65 % 0.00 in
22:30 47.2 °F 35.6 °F 30.30 in North 3.1 mph 6.9 mph 64 % 0.00 in
22:35 47.1 °F 35.5 °F 30.31 in NE 4.7 mph 8.1 mph 64 % 0.00 in
22:40 47.1 °F 35.9 °F 30.31 in NNE 2.0 mph 3.5 mph 65 % 0.00 in
22:45 47.0 °F 37.0 °F 30.31 in NNE 2.1 mph 3.5 mph 68 % 0.00 in
22:50 46.7 °F 36.7 °F 30.31 in North 2.4 mph 4.0 mph 68 % 0.00 in
22:55 46.5 °F 36.9 °F 30.31 in NNE 4.5 mph 5.8 mph 69 % 0.00 in
23:00 46.1 °F 36.9 °F 30.31 in NNE 0.9 mph 2.3 mph 70 % 0.00 in
23:06 45.9 °F 37.0 °F 30.31 in NE 1.0 mph 2.3 mph 71 % 0.00 in
23:11 45.5 °F 37.3 °F 30.32 in NNE 1.6 mph 3.5 mph 73 % 0.00 in
23:16 45.1 °F 36.3 °F 30.32 in NE 3.5 mph 6.9 mph 71 % 0.00 in
23:21 44.7 °F 35.1 °F 30.32 in North 5.6 mph 6.9 mph 69 % 0.00 in
23:26 44.5 °F 33.8 °F 30.31 in North 7.0 mph 10.4 mph 66 % 0.00 in
23:31 44.5 °F 33.8 °F 30.32 in NNE 3.9 mph 8.1 mph 66 % 0.00 in
23:36 44.5 °F 34.2 °F 30.32 in NE 6.0 mph 8.1 mph 67 % 0.00 in
23:41 44.6 °F 33.6 °F 30.32 in NNE 3.9 mph 6.9 mph 65 % 0.00 in
23:46 44.7 °F 33.6 °F 30.32 in NNE 4.0 mph 6.9 mph 65 % 0.00 in
23:51 44.6 °F 33.2 °F 30.33 in NNE 2.7 mph 3.5 mph 64 % 0.00 in
23:57 44.6 °F 33.2 °F 30.33 in NNE 1.4 mph 3.5 mph 64 % 0.00 in
Crab Meadow Weather
Compliments of Weather Underground - 3 mb

Script developed by  Jim McMurry - jmcmurry@mwt.net Adapted for the template by  Wim van der Kuil - Leuven-Template.eu

Recycling: Out of every $10 spent buying things, $1 (10%) goes for packaging that is thrown away. Packaging represents about 65% of household trash.